sensor_id;sensor_type;location;lat;lon;timestamp;P1;durP1;ratioP1;P2;durP2;ratioP2
23826;SDS011;12094;50.822;4.376;2023-07-24T00:01:57;14.07;;;7.32;;
23826;SDS011;12094;50.822;4.376;2023-07-24T00:04:25;13.77;;;7.93;;
23826;SDS011;12094;50.822;4.376;2023-07-24T00:06:51;14.32;;;7.97;;
23826;SDS011;12094;50.822;4.376;2023-07-24T00:09:18;16.63;;;7.95;;
23826;SDS011;12094;50.822;4.376;2023-07-24T00:11:48;14.00;;;7.88;;
23826;SDS011;12094;50.822;4.376;2023-07-24T00:14:16;12.20;;;7.68;;
23826;SDS011;12094;50.822;4.376;2023-07-24T00:16:43;16.02;;;8.05;;
23826;SDS011;12094;50.822;4.376;2023-07-24T00:19:10;12.63;;;7.80;;
23826;SDS011;12094;50.822;4.376;2023-07-24T00:21:38;12.65;;;8.00;;
23826;SDS011;12094;50.822;4.376;2023-07-24T00:24:05;15.68;;;7.78;;
23826;SDS011;12094;50.822;4.376;2023-07-24T00:26:32;14.45;;;7.13;;
23826;SDS011;12094;50.822;4.376;2023-07-24T00:29:00;11.13;;;6.43;;
23826;SDS011;12094;50.822;4.376;2023-07-24T00:31:27;13.02;;;7.45;;
23826;SDS011;12094;50.822;4.376;2023-07-24T00:33:55;17.45;;;7.28;;
23826;SDS011;12094;50.822;4.376;2023-07-24T00:36:22;14.07;;;7.55;;
23826;SDS011;12094;50.822;4.376;2023-07-24T00:38:49;16.13;;;8.80;;
23826;SDS011;12094;50.822;4.376;2023-07-24T00:41:16;15.07;;;7.88;;
23826;SDS011;12094;50.822;4.376;2023-07-24T00:43:45;17.58;;;7.40;;
23826;SDS011;12094;50.822;4.376;2023-07-24T00:46:13;13.05;;;7.70;;
23826;SDS011;12094;50.822;4.376;2023-07-24T00:48:41;15.90;;;7.95;;
23826;SDS011;12094;50.822;4.376;2023-07-24T00:51:08;13.25;;;7.38;;
23826;SDS011;12094;50.822;4.376;2023-07-24T00:53:37;16.92;;;7.00;;
23826;SDS011;12094;50.822;4.376;2023-07-24T00:56:05;14.93;;;7.32;;
23826;SDS011;12094;50.822;4.376;2023-07-24T00:58:33;16.08;;;7.53;;
23826;SDS011;12094;50.822;4.376;2023-07-24T01:01:03;14.93;;;6.88;;
23826;SDS011;12094;50.822;4.376;2023-07-24T01:03:34;16.95;;;7.05;;
23826;SDS011;12094;50.822;4.376;2023-07-24T01:06:02;14.02;;;7.28;;
23826;SDS011;12094;50.822;4.376;2023-07-24T01:08:30;14.02;;;7.65;;
23826;SDS011;12094;50.822;4.376;2023-07-24T01:10:57;15.02;;;8.02;;
23826;SDS011;12094;50.822;4.376;2023-07-24T01:13:30;16.60;;;7.93;;
23826;SDS011;12094;50.822;4.376;2023-07-24T01:16:04;15.35;;;7.68;;
23826;SDS011;12094;50.822;4.376;2023-07-24T01:18:39;16.63;;;7.72;;
23826;SDS011;12094;50.822;4.376;2023-07-24T01:21:08;14.88;;;7.07;;
23826;SDS011;12094;50.822;4.376;2023-07-24T01:26:36;15.48;;;8.50;;
23826;SDS011;12094;50.822;4.376;2023-07-24T01:29:03;14.57;;;7.80;;
23826;SDS011;12094;50.822;4.376;2023-07-24T01:31:30;10.15;;;7.38;;
23826;SDS011;12094;50.822;4.376;2023-07-24T01:33:57;12.00;;;7.60;;
23826;SDS011;12094;50.822;4.376;2023-07-24T01:36:24;14.75;;;7.30;;
23826;SDS011;12094;50.822;4.376;2023-07-24T01:38:51;14.43;;;7.10;;
23826;SDS011;12094;50.822;4.376;2023-07-24T01:41:19;9.88;;;6.93;;
23826;SDS011;12094;50.822;4.376;2023-07-24T01:43:46;15.55;;;8.00;;
23826;SDS011;12094;50.822;4.376;2023-07-24T01:46:14;16.45;;;7.93;;
23826;SDS011;12094;50.822;4.376;2023-07-24T01:48:42;13.15;;;7.40;;
23826;SDS011;12094;50.822;4.376;2023-07-24T01:51:09;16.40;;;8.52;;
23826;SDS011;12094;50.822;4.376;2023-07-24T01:53:36;11.88;;;6.82;;
23826;SDS011;12094;50.822;4.376;2023-07-24T01:56:03;11.07;;;6.90;;
23826;SDS011;12094;50.822;4.376;2023-07-24T01:58:30;11.50;;;6.53;;
23826;SDS011;12094;50.822;4.376;2023-07-24T02:00:57;10.68;;;5.80;;
23826;SDS011;12094;50.822;4.376;2023-07-24T02:03:25;8.80;;;5.70;;
23826;SDS011;12094;50.822;4.376;2023-07-24T02:05:53;11.82;;;7.47;;
23826;SDS011;12094;50.822;4.376;2023-07-24T02:08:20;10.52;;;5.88;;
23826;SDS011;12094;50.822;4.376;2023-07-24T02:10:50;12.52;;;6.10;;
23826;SDS011;12094;50.822;4.376;2023-07-24T02:13:17;8.32;;;5.38;;
23826;SDS011;12094;50.822;4.376;2023-07-24T02:15:48;11.23;;;5.32;;
23826;SDS011;12094;50.822;4.376;2023-07-24T02:18:15;7.82;;;4.85;;
23826;SDS011;12094;50.822;4.376;2023-07-24T02:20:52;9.98;;;5.55;;
23826;SDS011;12094;50.822;4.376;2023-07-24T02:23:20;8.18;;;5.22;;
23826;SDS011;12094;50.822;4.376;2023-07-24T02:25:50;8.85;;;4.85;;
23826;SDS011;12094;50.822;4.376;2023-07-24T02:28:18;8.97;;;5.07;;
23826;SDS011;12094;50.822;4.376;2023-07-24T02:30:46;6.88;;;4.50;;
23826;SDS011;12094;50.822;4.376;2023-07-24T02:33:14;7.13;;;4.68;;
23826;SDS011;12094;50.822;4.376;2023-07-24T02:35:41;7.40;;;4.40;;
23826;SDS011;12094;50.822;4.376;2023-07-24T02:38:08;7.90;;;5.05;;
23826;SDS011;12094;50.822;4.376;2023-07-24T02:40:37;7.80;;;4.93;;
23826;SDS011;12094;50.822;4.376;2023-07-24T02:43:08;7.15;;;4.10;;
23826;SDS011;12094;50.822;4.376;2023-07-24T02:45:36;8.63;;;4.97;;
23826;SDS011;12094;50.822;4.376;2023-07-24T02:48:04;8.98;;;5.35;;
23826;SDS011;12094;50.822;4.376;2023-07-24T02:50:32;12.98;;;4.90;;
23826;SDS011;12094;50.822;4.376;2023-07-24T02:53:00;8.63;;;5.57;;
23826;SDS011;12094;50.822;4.376;2023-07-24T02:55:28;7.10;;;4.90;;
23826;SDS011;12094;50.822;4.376;2023-07-24T02:57:55;6.80;;;4.47;;
23826;SDS011;12094;50.822;4.376;2023-07-24T03:00:25;7.72;;;4.53;;
23826;SDS011;12094;50.822;4.376;2023-07-24T03:02:52;9.25;;;4.80;;
23826;SDS011;12094;50.822;4.376;2023-07-24T03:05:19;6.10;;;3.55;;
23826;SDS011;12094;50.822;4.376;2023-07-24T03:07:46;7.70;;;4.65;;
23826;SDS011;12094;50.822;4.376;2023-07-24T03:10:13;6.07;;;3.92;;
23826;SDS011;12094;50.822;4.376;2023-07-24T03:12:40;4.57;;;3.55;;
23826;SDS011;12094;50.822;4.376;2023-07-24T03:15:07;6.22;;;3.30;;
23826;SDS011;12094;50.822;4.376;2023-07-24T03:17:34;4.60;;;3.13;;
23826;SDS011;12094;50.822;4.376;2023-07-24T03:20:08;4.75;;;3.47;;
23826;SDS011;12094;50.822;4.376;2023-07-24T03:22:36;5.18;;;3.40;;
23826;SDS011;12094;50.822;4.376;2023-07-24T03:25:04;6.28;;;3.20;;
23826;SDS011;12094;50.822;4.376;2023-07-24T03:27:31;4.43;;;3.45;;
23826;SDS011;12094;50.822;4.376;2023-07-24T03:29:58;4.35;;;3.25;;
23826;SDS011;12094;50.822;4.376;2023-07-24T03:32:25;5.07;;;3.72;;
23826;SDS011;12094;50.822;4.376;2023-07-24T03:34:54;7.13;;;3.63;;
23826;SDS011;12094;50.822;4.376;2023-07-24T03:37:22;5.00;;;2.95;;
23826;SDS011;12094;50.822;4.376;2023-07-24T03:39:50;5.50;;;3.00;;
23826;SDS011;12094;50.822;4.376;2023-07-24T03:42:26;4.47;;;3.10;;
23826;SDS011;12094;50.822;4.376;2023-07-24T03:44:54;5.03;;;3.63;;
23826;SDS011;12094;50.822;4.376;2023-07-24T03:47:22;5.57;;;3.10;;
23826;SDS011;12094;50.822;4.376;2023-07-24T03:49:50;4.13;;;2.97;;
23826;SDS011;12094;50.822;4.376;2023-07-24T03:52:19;5.57;;;3.13;;
23826;SDS011;12094;50.822;4.376;2023-07-24T03:54:46;3.67;;;2.95;;
23826;SDS011;12094;50.822;4.376;2023-07-24T03:57:13;5.10;;;2.90;;
23826;SDS011;12094;50.822;4.376;2023-07-24T03:59:40;4.32;;;2.50;;
23826;SDS011;12094;50.822;4.376;2023-07-24T04:02:07;3.22;;;2.42;;
23826;SDS011;12094;50.822;4.376;2023-07-24T04:04:36;4.22;;;2.60;;
23826;SDS011;12094;50.822;4.376;2023-07-24T04:07:04;2.95;;;2.53;;
23826;SDS011;12094;50.822;4.376;2023-07-24T04:09:31;3.13;;;2.45;;
23826;SDS011;12094;50.822;4.376;2023-07-24T04:11:59;11.25;;;8.55;;
23826;SDS011;12094;50.822;4.376;2023-07-24T04:14:25;4.47;;;2.92;;
23826;SDS011;12094;50.822;4.376;2023-07-24T04:16:52;3.17;;;2.30;;
23826;SDS011;12094;50.822;4.376;2023-07-24T04:19:22;3.30;;;2.20;;
23826;SDS011;12094;50.822;4.376;2023-07-24T04:21:49;3.03;;;2.45;;
23826;SDS011;12094;50.822;4.376;2023-07-24T04:24:16;2.60;;;2.03;;
23826;SDS011;12094;50.822;4.376;2023-07-24T04:26:43;3.17;;;2.45;;
23826;SDS011;12094;50.822;4.376;2023-07-24T04:29:10;2.92;;;2.47;;
23826;SDS011;12094;50.822;4.376;2023-07-24T04:31:37;5.28;;;2.60;;
23826;SDS011;12094;50.822;4.376;2023-07-24T04:34:03;7.57;;;6.15;;
23826;SDS011;12094;50.822;4.376;2023-07-24T04:36:30;4.45;;;2.58;;
23826;SDS011;12094;50.822;4.376;2023-07-24T04:38:58;2.47;;;2.22;;
23826;SDS011;12094;50.822;4.376;2023-07-24T04:41:25;6.22;;;2.47;;
23826;SDS011;12094;50.822;4.376;2023-07-24T04:43:52;3.00;;;2.60;;
23826;SDS011;12094;50.822;4.376;2023-07-24T04:46:20;2.95;;;2.45;;
23826;SDS011;12094;50.822;4.376;2023-07-24T04:48:46;4.38;;;2.60;;
23826;SDS011;12094;50.822;4.376;2023-07-24T04:51:13;2.88;;;2.25;;
23826;SDS011;12094;50.822;4.376;2023-07-24T04:53:40;5.07;;;3.10;;
23826;SDS011;12094;50.822;4.376;2023-07-24T04:56:07;4.45;;;2.50;;
23826;SDS011;12094;50.822;4.376;2023-07-24T04:58:34;3.33;;;2.60;;
23826;SDS011;12094;50.822;4.376;2023-07-24T05:01:04;3.75;;;2.60;;
23826;SDS011;12094;50.822;4.376;2023-07-24T05:03:31;4.55;;;2.35;;
23826;SDS011;12094;50.822;4.376;2023-07-24T05:05:58;3.60;;;2.38;;
23826;SDS011;12094;50.822;4.376;2023-07-24T05:08:25;3.30;;;2.45;;
23826;SDS011;12094;50.822;4.376;2023-07-24T05:10:59;3.47;;;2.67;;
23826;SDS011;12094;50.822;4.376;2023-07-24T05:13:26;3.17;;;2.40;;
23826;SDS011;12094;50.822;4.376;2023-07-24T05:15:53;4.95;;;3.03;;
23826;SDS011;12094;50.822;4.376;2023-07-24T05:18:21;3.85;;;3.13;;
23826;SDS011;12094;50.822;4.376;2023-07-24T05:20:48;4.03;;;3.00;;
23826;SDS011;12094;50.822;4.376;2023-07-24T05:23:19;3.92;;;3.03;;
23826;SDS011;12094;50.822;4.376;2023-07-24T05:25:46;4.78;;;3.00;;
23826;SDS011;12094;50.822;4.376;2023-07-24T05:28:12;3.85;;;2.90;;
23826;SDS011;12094;50.822;4.376;2023-07-24T05:30:39;5.43;;;3.40;;
23826;SDS011;12094;50.822;4.376;2023-07-24T05:33:06;5.45;;;3.05;;
23826;SDS011;12094;50.822;4.376;2023-07-24T05:35:34;4.22;;;3.30;;
23826;SDS011;12094;50.822;4.376;2023-07-24T05:38:01;5.25;;;3.20;;
23826;SDS011;12094;50.822;4.376;2023-07-24T05:40:29;5.30;;;2.90;;
23826;SDS011;12094;50.822;4.376;2023-07-24T05:42:56;3.10;;;2.70;;
23826;SDS011;12094;50.822;4.376;2023-07-24T05:45:23;6.43;;;3.00;;
23826;SDS011;12094;50.822;4.376;2023-07-24T05:47:50;5.10;;;3.35;;
23826;SDS011;12094;50.822;4.376;2023-07-24T05:50:17;6.93;;;2.65;;
23826;SDS011;12094;50.822;4.376;2023-07-24T05:52:44;4.28;;;2.92;;
23826;SDS011;12094;50.822;4.376;2023-07-24T05:55:11;5.25;;;3.00;;
23826;SDS011;12094;50.822;4.376;2023-07-24T05:57:38;5.18;;;3.17;;
23826;SDS011;12094;50.822;4.376;2023-07-24T06:00:05;4.45;;;2.90;;
23826;SDS011;12094;50.822;4.376;2023-07-24T06:02:41;4.18;;;3.10;;
23826;SDS011;12094;50.822;4.376;2023-07-24T06:05:08;3.65;;;3.10;;
23826;SDS011;12094;50.822;4.376;2023-07-24T06:07:36;4.80;;;3.17;;
23826;SDS011;12094;50.822;4.376;2023-07-24T06:10:03;4.97;;;3.10;;
23826;SDS011;12094;50.822;4.376;2023-07-24T06:12:31;3.90;;;3.20;;
23826;SDS011;12094;50.822;4.376;2023-07-24T06:14:59;7.22;;;4.00;;
23826;SDS011;12094;50.822;4.376;2023-07-24T06:17:26;9.07;;;3.45;;
23826;SDS011;12094;50.822;4.376;2023-07-24T06:19:53;5.85;;;3.38;;
23826;SDS011;12094;50.822;4.376;2023-07-24T06:22:20;4.22;;;2.92;;
23826;SDS011;12094;50.822;4.376;2023-07-24T06:24:47;7.38;;;3.53;;
23826;SDS011;12094;50.822;4.376;2023-07-24T06:27:15;5.05;;;3.78;;
23826;SDS011;12094;50.822;4.376;2023-07-24T06:29:42;7.40;;;3.38;;
23826;SDS011;12094;50.822;4.376;2023-07-24T06:32:09;6.50;;;3.30;;
23826;SDS011;12094;50.822;4.376;2023-07-24T06:34:36;7.25;;;3.30;;
23826;SDS011;12094;50.822;4.376;2023-07-24T06:37:03;4.40;;;3.13;;
23826;SDS011;12094;50.822;4.376;2023-07-24T06:39:47;7.55;;;3.95;;
23826;SDS011;12094;50.822;4.376;2023-07-24T06:42:14;5.28;;;3.42;;
23826;SDS011;12094;50.822;4.376;2023-07-24T06:44:41;5.75;;;3.60;;
23826;SDS011;12094;50.822;4.376;2023-07-24T06:47:08;5.63;;;3.63;;
23826;SDS011;12094;50.822;4.376;2023-07-24T06:49:35;6.38;;;3.47;;
23826;SDS011;12094;50.822;4.376;2023-07-24T06:52:03;5.75;;;3.25;;
23826;SDS011;12094;50.822;4.376;2023-07-24T06:54:33;5.00;;;3.15;;
23826;SDS011;12094;50.822;4.376;2023-07-24T06:56:59;4.97;;;2.90;;
23826;SDS011;12094;50.822;4.376;2023-07-24T06:59:29;5.28;;;2.97;;
23826;SDS011;12094;50.822;4.376;2023-07-24T07:01:56;5.68;;;3.30;;
23826;SDS011;12094;50.822;4.376;2023-07-24T07:04:22;5.05;;;3.10;;
23826;SDS011;12094;50.822;4.376;2023-07-24T07:06:50;6.05;;;3.10;;
23826;SDS011;12094;50.822;4.376;2023-07-24T07:09:17;5.03;;;3.03;;
23826;SDS011;12094;50.822;4.376;2023-07-24T07:11:44;5.25;;;3.30;;
23826;SDS011;12094;50.822;4.376;2023-07-24T07:14:11;4.50;;;2.53;;
23826;SDS011;12094;50.822;4.376;2023-07-24T07:16:39;5.88;;;3.22;;
23826;SDS011;12094;50.822;4.376;2023-07-24T07:19:07;6.78;;;3.47;;
23826;SDS011;12094;50.822;4.376;2023-07-24T07:21:37;4.57;;;3.33;;
23826;SDS011;12094;50.822;4.376;2023-07-24T07:24:04;8.65;;;2.92;;
23826;SDS011;12094;50.822;4.376;2023-07-24T07:26:31;6.60;;;3.15;;
23826;SDS011;12094;50.822;4.376;2023-07-24T07:28:59;9.07;;;3.40;;
23826;SDS011;12094;50.822;4.376;2023-07-24T07:31:26;4.95;;;3.30;;
23826;SDS011;12094;50.822;4.376;2023-07-24T07:33:54;6.90;;;3.60;;
23826;SDS011;12094;50.822;4.376;2023-07-24T07:36:21;5.35;;;2.55;;
23826;SDS011;12094;50.822;4.376;2023-07-24T07:38:49;7.65;;;3.28;;
23826;SDS011;12094;50.822;4.376;2023-07-24T07:41:16;4.80;;;3.00;;
23826;SDS011;12094;50.822;4.376;2023-07-24T07:43:43;6.40;;;3.08;;
23826;SDS011;12094;50.822;4.376;2023-07-24T07:46:10;5.90;;;3.00;;
23826;SDS011;12094;50.822;4.376;2023-07-24T07:48:37;6.03;;;2.88;;
23826;SDS011;12094;50.822;4.376;2023-07-24T07:51:05;9.40;;;3.05;;
23826;SDS011;12094;50.822;4.376;2023-07-24T07:53:32;4.38;;;2.55;;
23826;SDS011;12094;50.822;4.376;2023-07-24T07:55:59;5.60;;;2.63;;
23826;SDS011;12094;50.822;4.376;2023-07-24T07:58:27;3.92;;;2.40;;
23826;SDS011;12094;50.822;4.376;2023-07-24T08:00:54;5.15;;;2.78;;
23826;SDS011;12094;50.822;4.376;2023-07-24T08:03:21;4.85;;;2.17;;
23826;SDS011;12094;50.822;4.376;2023-07-24T08:05:48;4.57;;;2.55;;
23826;SDS011;12094;50.822;4.376;2023-07-24T08:08:15;7.15;;;2.28;;
23826;SDS011;12094;50.822;4.376;2023-07-24T08:10:43;4.10;;;2.63;;
23826;SDS011;12094;50.822;4.376;2023-07-24T08:13:10;4.45;;;2.70;;
23826;SDS011;12094;50.822;4.376;2023-07-24T08:15:37;4.78;;;2.80;;
23826;SDS011;12094;50.822;4.376;2023-07-24T08:18:04;3.78;;;2.40;;
23826;SDS011;12094;50.822;4.376;2023-07-24T08:20:32;3.25;;;2.42;;
23826;SDS011;12094;50.822;4.376;2023-07-24T08:23:02;7.05;;;2.95;;
23826;SDS011;12094;50.822;4.376;2023-07-24T08:25:29;6.07;;;3.40;;
23826;SDS011;12094;50.822;4.376;2023-07-24T08:27:56;5.03;;;3.08;;
23826;SDS011;12094;50.822;4.376;2023-07-24T08:30:30;5.55;;;3.05;;
23826;SDS011;12094;50.822;4.376;2023-07-24T08:33:00;4.75;;;3.05;;
23826;SDS011;12094;50.822;4.376;2023-07-24T08:35:28;6.75;;;3.28;;
23826;SDS011;12094;50.822;4.376;2023-07-24T08:37:55;6.10;;;3.47;;
23826;SDS011;12094;50.822;4.376;2023-07-24T08:40:23;4.47;;;3.67;;
23826;SDS011;12094;50.822;4.376;2023-07-24T08:42:50;4.85;;;3.30;;
23826;SDS011;12094;50.822;4.376;2023-07-24T08:45:18;6.28;;;3.47;;
23826;SDS011;12094;50.822;4.376;2023-07-24T08:47:47;5.63;;;3.20;;
23826;SDS011;12094;50.822;4.376;2023-07-24T08:50:16;6.45;;;3.83;;
23826;SDS011;12094;50.822;4.376;2023-07-24T08:52:45;9.27;;;3.70;;
23826;SDS011;12094;50.822;4.376;2023-07-24T08:55:14;9.57;;;3.97;;
23826;SDS011;12094;50.822;4.376;2023-07-24T08:57:42;6.85;;;3.97;;
23826;SDS011;12094;50.822;4.376;2023-07-24T09:00:10;5.45;;;3.60;;
23826;SDS011;12094;50.822;4.376;2023-07-24T09:02:37;8.60;;;4.05;;
23826;SDS011;12094;50.822;4.376;2023-07-24T09:05:05;7.93;;;4.00;;
23826;SDS011;12094;50.822;4.376;2023-07-24T09:07:32;6.13;;;3.45;;
23826;SDS011;12094;50.822;4.376;2023-07-24T09:10:00;9.45;;;4.07;;
23826;SDS011;12094;50.822;4.376;2023-07-24T09:12:30;5.45;;;4.22;;
23826;SDS011;12094;50.822;4.376;2023-07-24T09:15:03;7.47;;;4.18;;
23826;SDS011;12094;50.822;4.376;2023-07-24T09:17:32;5.18;;;3.45;;
23826;SDS011;12094;50.822;4.376;2023-07-24T09:19:59;4.65;;;3.60;;
23826;SDS011;12094;50.822;4.376;2023-07-24T09:22:28;10.25;;;3.63;;
23826;SDS011;12094;50.822;4.376;2023-07-24T09:24:56;5.93;;;3.97;;
23826;SDS011;12094;50.822;4.376;2023-07-24T09:27:24;7.43;;;3.75;;
23826;SDS011;12094;50.822;4.376;2023-07-24T09:29:54;5.45;;;3.92;;
23826;SDS011;12094;50.822;4.376;2023-07-24T09:32:22;6.07;;;4.50;;
23826;SDS011;12094;50.822;4.376;2023-07-24T09:34:51;6.55;;;4.00;;
23826;SDS011;12094;50.822;4.376;2023-07-24T09:37:30;7.18;;;4.15;;
23826;SDS011;12094;50.822;4.376;2023-07-24T09:39:59;10.35;;;4.50;;
23826;SDS011;12094;50.822;4.376;2023-07-24T09:42:29;9.20;;;4.72;;
23826;SDS011;12094;50.822;4.376;2023-07-24T09:44:57;9.02;;;4.40;;
23826;SDS011;12094;50.822;4.376;2023-07-24T09:47:25;8.20;;;4.80;;
23826;SDS011;12094;50.822;4.376;2023-07-24T09:50:12;6.82;;;4.88;;
23826;SDS011;12094;50.822;4.376;2023-07-24T09:52:40;9.75;;;5.13;;
23826;SDS011;12094;50.822;4.376;2023-07-24T09:55:18;9.40;;;5.60;;
23826;SDS011;12094;50.822;4.376;2023-07-24T09:57:51;7.57;;;4.80;;
23826;SDS011;12094;50.822;4.376;2023-07-24T10:00:21;7.10;;;4.18;;
23826;SDS011;12094;50.822;4.376;2023-07-24T10:02:48;7.82;;;4.15;;
23826;SDS011;12094;50.822;4.376;2023-07-24T10:05:15;5.65;;;3.45;;
23826;SDS011;12094;50.822;4.376;2023-07-24T10:07:44;5.15;;;3.60;;
23826;SDS011;12094;50.822;4.376;2023-07-24T10:10:12;6.93;;;3.90;;
23826;SDS011;12094;50.822;4.376;2023-07-24T10:12:40;6.25;;;3.67;;
23826;SDS011;12094;50.822;4.376;2023-07-24T10:15:07;5.07;;;3.75;;
23826;SDS011;12094;50.822;4.376;2023-07-24T10:20:07;4.85;;;3.10;;
23826;SDS011;12094;50.822;4.376;2023-07-24T10:22:35;4.07;;;3.22;;
23826;SDS011;12094;50.822;4.376;2023-07-24T10:25:04;5.75;;;3.40;;
23826;SDS011;12094;50.822;4.376;2023-07-24T10:27:35;5.85;;;3.75;;
23826;SDS011;12094;50.822;4.376;2023-07-24T10:30:05;5.47;;;3.63;;
23826;SDS011;12094;50.822;4.376;2023-07-24T10:32:53;4.97;;;3.55;;
23826;SDS011;12094;50.822;4.376;2023-07-24T10:35:36;5.88;;;3.42;;
23826;SDS011;12094;50.822;4.376;2023-07-24T10:38:15;5.70;;;3.78;;
23826;SDS011;12094;50.822;4.376;2023-07-24T10:40:44;4.90;;;3.53;;
23826;SDS011;12094;50.822;4.376;2023-07-24T10:43:13;7.47;;;3.50;;
23826;SDS011;12094;50.822;4.376;2023-07-24T10:48:20;6.70;;;3.30;;
23826;SDS011;12094;50.822;4.376;2023-07-24T10:50:49;5.38;;;3.53;;
23826;SDS011;12094;50.822;4.376;2023-07-24T10:53:21;5.90;;;3.97;;
23826;SDS011;12094;50.822;4.376;2023-07-24T10:55:50;4.80;;;3.30;;
23826;SDS011;12094;50.822;4.376;2023-07-24T10:58:18;4.75;;;3.40;;
23826;SDS011;12094;50.822;4.376;2023-07-24T11:00:48;9.52;;;3.58;;
23826;SDS011;12094;50.822;4.376;2023-07-24T11:03:16;5.03;;;3.92;;
23826;SDS011;12094;50.822;4.376;2023-07-24T11:05:44;4.43;;;3.35;;
23826;SDS011;12094;50.822;4.376;2023-07-24T11:08:16;4.88;;;3.65;;
23826;SDS011;12094;50.822;4.376;2023-07-24T11:10:50;5.03;;;3.65;;
23826;SDS011;12094;50.822;4.376;2023-07-24T11:13:19;4.25;;;3.25;;
23826;SDS011;12094;50.822;4.376;2023-07-24T11:15:51;4.97;;;3.42;;
23826;SDS011;12094;50.822;4.376;2023-07-24T11:18:21;4.50;;;3.20;;
23826;SDS011;12094;50.822;4.376;2023-07-24T11:20:58;4.93;;;3.63;;
23826;SDS011;12094;50.822;4.376;2023-07-24T11:23:25;5.65;;;3.63;;
23826;SDS011;12094;50.822;4.376;2023-07-24T11:25:52;4.35;;;3.67;;
23826;SDS011;12094;50.822;4.376;2023-07-24T11:28:20;6.55;;;4.15;;
23826;SDS011;12094;50.822;4.376;2023-07-24T11:30:48;9.10;;;4.32;;
23826;SDS011;12094;50.822;4.376;2023-07-24T11:33:15;8.88;;;4.32;;
23826;SDS011;12094;50.822;4.376;2023-07-24T11:38:19;6.75;;;4.32;;
23826;SDS011;12094;50.822;4.376;2023-07-24T11:43:17;8.68;;;4.28;;
23826;SDS011;12094;50.822;4.376;2023-07-24T11:45:47;5.00;;;3.75;;
23826;SDS011;12094;50.822;4.376;2023-07-24T11:48:19;7.85;;;4.57;;
23826;SDS011;12094;50.822;4.376;2023-07-24T11:50:51;9.05;;;4.63;;
23826;SDS011;12094;50.822;4.376;2023-07-24T11:55:58;6.10;;;4.30;;
23826;SDS011;12094;50.822;4.376;2023-07-24T11:58:27;7.00;;;4.15;;
23826;SDS011;12094;50.822;4.376;2023-07-24T12:00:58;5.15;;;3.63;;
23826;SDS011;12094;50.822;4.376;2023-07-24T12:03:26;7.70;;;3.83;;
23826;SDS011;12094;50.822;4.376;2023-07-24T12:05:55;7.20;;;4.47;;
23826;SDS011;12094;50.822;4.376;2023-07-24T12:08:32;6.20;;;4.07;;
23826;SDS011;12094;50.822;4.376;2023-07-24T12:11:01;6.60;;;3.92;;
23826;SDS011;12094;50.822;4.376;2023-07-24T12:13:28;5.97;;;3.80;;
23826;SDS011;12094;50.822;4.376;2023-07-24T12:15:57;6.43;;;4.00;;
23826;SDS011;12094;50.822;4.376;2023-07-24T12:18:24;5.50;;;3.85;;
23826;SDS011;12094;50.822;4.376;2023-07-24T12:20:55;6.45;;;3.72;;
23826;SDS011;12094;50.822;4.376;2023-07-24T12:23:22;5.90;;;3.60;;
23826;SDS011;12094;50.822;4.376;2023-07-24T12:25:49;6.90;;;3.45;;
23826;SDS011;12094;50.822;4.376;2023-07-24T12:28:16;8.13;;;3.78;;
23826;SDS011;12094;50.822;4.376;2023-07-24T12:30:45;7.65;;;3.95;;
23826;SDS011;12094;50.822;4.376;2023-07-24T12:33:15;6.35;;;4.07;;
23826;SDS011;12094;50.822;4.376;2023-07-24T12:35:43;6.93;;;4.05;;
23826;SDS011;12094;50.822;4.376;2023-07-24T12:38:11;4.90;;;3.30;;
23826;SDS011;12094;50.822;4.376;2023-07-24T12:40:38;9.57;;;4.03;;
23826;SDS011;12094;50.822;4.376;2023-07-24T12:43:04;6.50;;;3.90;;
23826;SDS011;12094;50.822;4.376;2023-07-24T12:45:32;6.78;;;4.10;;
23826;SDS011;12094;50.822;4.376;2023-07-24T12:47:59;8.18;;;3.97;;
23826;SDS011;12094;50.822;4.376;2023-07-24T12:50:26;8.50;;;3.97;;
23826;SDS011;12094;50.822;4.376;2023-07-24T12:52:53;8.80;;;4.03;;
23826;SDS011;12094;50.822;4.376;2023-07-24T12:55:20;9.32;;;3.80;;
23826;SDS011;12094;50.822;4.376;2023-07-24T12:57:47;11.10;;;7.70;;
23826;SDS011;12094;50.822;4.376;2023-07-24T13:00:15;8.18;;;4.05;;
23826;SDS011;12094;50.822;4.376;2023-07-24T13:02:42;6.93;;;3.97;;
23826;SDS011;12094;50.822;4.376;2023-07-24T13:05:11;7.45;;;4.35;;
23826;SDS011;12094;50.822;4.376;2023-07-24T13:07:38;5.50;;;4.03;;
23826;SDS011;12094;50.822;4.376;2023-07-24T13:10:05;5.20;;;3.65;;
23826;SDS011;12094;50.822;4.376;2023-07-24T13:12:33;8.00;;;4.75;;
23826;SDS011;12094;50.822;4.376;2023-07-24T13:15:00;8.73;;;4.63;;
23826;SDS011;12094;50.822;4.376;2023-07-24T13:17:27;6.22;;;4.10;;
23826;SDS011;12094;50.822;4.376;2023-07-24T13:19:55;10.35;;;5.00;;
23826;SDS011;12094;50.822;4.376;2023-07-24T13:22:22;10.35;;;4.47;;
23826;SDS011;12094;50.822;4.376;2023-07-24T13:24:49;5.88;;;4.40;;
23826;SDS011;12094;50.822;4.376;2023-07-24T13:27:16;8.05;;;4.63;;
23826;SDS011;12094;50.822;4.376;2023-07-24T13:29:43;6.43;;;4.38;;
23826;SDS011;12094;50.822;4.376;2023-07-24T13:32:09;8.90;;;4.70;;
23826;SDS011;12094;50.822;4.376;2023-07-24T13:34:37;7.55;;;4.82;;
23826;SDS011;12094;50.822;4.376;2023-07-24T13:37:05;7.85;;;4.78;;
23826;SDS011;12094;50.822;4.376;2023-07-24T13:39:32;7.90;;;4.63;;
23826;SDS011;12094;50.822;4.376;2023-07-24T13:42:00;11.13;;;4.47;;
23826;SDS011;12094;50.822;4.376;2023-07-24T13:44:28;5.80;;;4.30;;
23826;SDS011;12094;50.822;4.376;2023-07-24T13:46:55;6.13;;;3.75;;
23826;SDS011;12094;50.822;4.376;2023-07-24T13:49:23;7.22;;;3.72;;
23826;SDS011;12094;50.822;4.376;2023-07-24T13:51:52;5.68;;;3.40;;
23826;SDS011;12094;50.822;4.376;2023-07-24T13:54:19;5.57;;;3.25;;
23826;SDS011;12094;50.822;4.376;2023-07-24T13:56:47;5.75;;;3.70;;
23826;SDS011;12094;50.822;4.376;2023-07-24T13:59:15;5.38;;;3.33;;
23826;SDS011;12094;50.822;4.376;2023-07-24T14:01:43;8.05;;;4.15;;
23826;SDS011;12094;50.822;4.376;2023-07-24T14:06:45;8.77;;;3.70;;
23826;SDS011;12094;50.822;4.376;2023-07-24T14:09:12;5.40;;;3.58;;
23826;SDS011;12094;50.822;4.376;2023-07-24T14:11:40;7.93;;;3.70;;
23826;SDS011;12094;50.822;4.376;2023-07-24T14:14:10;6.25;;;3.28;;
23826;SDS011;12094;50.822;4.376;2023-07-24T14:16:37;6.32;;;3.47;;
23826;SDS011;12094;50.822;4.376;2023-07-24T14:19:08;7.75;;;3.85;;
23826;SDS011;12094;50.822;4.376;2023-07-24T14:21:35;8.32;;;3.95;;
23826;SDS011;12094;50.822;4.376;2023-07-24T14:24:02;6.32;;;3.65;;
23826;SDS011;12094;50.822;4.376;2023-07-24T14:26:29;6.57;;;3.42;;
23826;SDS011;12094;50.822;4.376;2023-07-24T14:28:56;5.78;;;3.17;;
23826;SDS011;12094;50.822;4.376;2023-07-24T14:31:24;5.32;;;3.22;;
23826;SDS011;12094;50.822;4.376;2023-07-24T14:33:51;5.18;;;3.50;;
23826;SDS011;12094;50.822;4.376;2023-07-24T14:36:19;5.18;;;2.85;;
23826;SDS011;12094;50.822;4.376;2023-07-24T14:38:47;7.32;;;3.50;;
23826;SDS011;12094;50.822;4.376;2023-07-24T14:41:16;9.00;;;3.83;;
23826;SDS011;12094;50.822;4.376;2023-07-24T14:43:43;6.90;;;3.45;;
23826;SDS011;12094;50.822;4.376;2023-07-24T14:46:11;5.03;;;3.55;;
23826;SDS011;12094;50.822;4.376;2023-07-24T14:48:38;7.53;;;3.70;;
23826;SDS011;12094;50.822;4.376;2023-07-24T14:51:06;6.65;;;3.50;;
23826;SDS011;12094;50.822;4.376;2023-07-24T14:53:33;6.70;;;3.25;;
23826;SDS011;12094;50.822;4.376;2023-07-24T14:56:00;9.13;;;2.95;;
23826;SDS011;12094;50.822;4.376;2023-07-24T14:58:27;5.20;;;3.20;;
23826;SDS011;12094;50.822;4.376;2023-07-24T15:00:54;7.82;;;2.75;;
23826;SDS011;12094;50.822;4.376;2023-07-24T15:03:21;6.20;;;3.25;;
23826;SDS011;12094;50.822;4.376;2023-07-24T15:05:48;4.78;;;2.97;;
23826;SDS011;12094;50.822;4.376;2023-07-24T15:08:16;6.22;;;3.70;;
23826;SDS011;12094;50.822;4.376;2023-07-24T15:10:46;7.00;;;3.53;;